Time;durP1;ratioP1;P1;durP2;ratioP2;P2;SDS_P1;SDS_P2;PMS_P1;PMS_P2;Temp;Humidity;BMP_temperature;BMP_pressure;BME280_temperature;BME280_humidity;BME280_pressure;Samples;Min_cycle;Max_cycle;Signal;HPM_P1;HPM_P2
2023/04/29 00:01:10;;;;;;;8.30;5.50;;;;;;;;;;755744;184;918479;-60
2023/04/29 00:03:36;;;;;;;6.67;5.20;;;;;;;;;;765034;183;919076;-60
2023/04/29 00:06:01;;;;;;;9.10;6.37;;;;;;;;;;754466;183;919111;-59
2023/04/29 00:08:27;;;;;;;14.40;6.00;;;;;;;;;;760550;182;919052;-59
2023/04/29 00:10:53;;;;;;;9.90;5.97;;;;;;;;;;763278;182;918996;-59
2023/04/29 00:13:20;;;;;;;9.73;6.27;;;;;;;;;;747641;184;919333;-60
2023/04/29 00:15:45;;;;;;;11.23;6.37;;;;;;;;;;748293;187;919250;-59
2023/04/29 00:18:11;;;;;;;10.30;7.73;;;;;;;;;;752062;183;917278;-59
2023/04/29 00:20:37;;;;;;;11.43;6.63;;;;;;;;;;759331;183;908388;-60
2023/04/29 00:23:02;;;;;;;11.73;6.97;;;;;;;;;;767528;182;916745;-60
2023/04/29 00:25:28;;;;;;;10.40;6.80;;;;;;;;;;754653;184;862745;-59
2023/04/29 00:27:54;;;;;;;10.47;7.23;;;;;;;;;;749403;184;922815;-60
2023/04/29 00:30:20;;;;;;;16.50;6.62;;;;;;;;;;757210;184;916516;-60
2023/04/29 00:32:46;;;;;;;11.80;6.93;;;;;;;;;;764194;181;911358;-60
2023/04/29 00:35:12;;;;;;;9.70;7.00;;;;;;;;;;766682;182;919356;-60
2023/04/29 00:37:37;;;;;;;9.75;6.93;;;;;;;;;;766820;182;918854;-60
2023/04/29 00:40:05;;;;;;;9.50;7.10;;;;;;;;;;758914;184;921606;-60
2023/04/29 00:42:30;;;;;;;14.83;7.70;;;;;;;;;;756207;182;918690;-60
2023/04/29 00:44:56;;;;;;;15.53;6.80;;;;;;;;;;751730;184;927298;-59
2023/04/29 00:47:21;;;;;;;11.00;6.20;;;;;;;;;;767379;181;917292;-60
2023/04/29 00:49:47;;;;;;;7.70;6.33;;;;;;;;;;767538;182;921657;-60
2023/04/29 00:52:13;;;;;;;10.53;7.00;;;;;;;;;;761676;182;916145;-60
2023/04/29 00:54:39;;;;;;;9.93;7.30;;;;;;;;;;768651;182;919108;-60
2023/04/29 00:57:06;;;;;;;16.37;7.20;;;;;;;;;;763673;180;913104;-60
2023/04/29 00:59:32;;;;;;;9.43;6.53;;;;;;;;;;753909;183;918002;-60
2023/04/29 01:01:58;;;;;;;12.43;6.93;;;;;;;;;;770453;181;823944;-60
2023/04/29 01:04:23;;;;;;;12.10;7.37;;;;;;;;;;764754;183;919795;-60
2023/04/29 01:07:01;;;;;;;10.50;7.10;;;;;;;;;;758745;181;880871;-60
2023/04/29 01:09:27;;;;;;;7.85;6.05;;;;;;;;;;755131;180;942956;-59
2023/04/29 01:12:10;;;;;;;8.13;6.43;;;;;;;;;;752718;183;918171;-61
2023/04/29 01:14:36;;;;;;;8.67;5.63;;;;;;;;;;760858;180;917588;-63
2023/04/29 01:17:03;;;;;;;8.70;6.97;;;;;;;;;;764545;181;942893;-61
2023/04/29 01:19:46;;;;;;;7.33;6.27;;;;;;;;;;762153;182;916614;-61
2023/04/29 01:22:13;;;;;;;7.50;6.20;;;;;;;;;;758550;182;917987;-60
2023/04/29 01:24:39;;;;;;;10.10;7.97;;;;;;;;;;762849;181;920633;-60
2023/04/29 01:27:04;;;;;;;9.37;6.60;;;;;;;;;;769637;182;918948;-61
2023/04/29 01:29:32;;;;;;;11.30;6.10;;;;;;;;;;757147;182;921903;-60
2023/04/29 01:31:58;;;;;;;9.60;6.27;;;;;;;;;;758054;182;921315;-61
2023/04/29 01:34:29;;;;;;;10.40;7.47;;;;;;;;;;766223;183;920866;-60
2023/04/29 01:36:56;;;;;;;9.47;7.30;;;;;;;;;;766662;182;922329;-60
2023/04/29 01:39:27;;;;;;;12.57;7.10;;;;;;;;;;764066;182;920623;-61
2023/04/29 01:41:53;;;;;;;12.03;6.37;;;;;;;;;;760929;182;919481;-61
2023/04/29 01:44:19;;;;;;;13.50;7.10;;;;;;;;;;767445;182;921929;-60
2023/04/29 01:46:44;;;;;;;9.37;6.23;;;;;;;;;;759720;182;895399;-61
2023/04/29 01:49:10;;;;;;;7.03;5.60;;;;;;;;;;763738;182;914510;-61
2023/04/29 01:51:37;;;;;;;9.30;7.70;;;;;;;;;;763369;182;919447;-61
2023/04/29 01:54:04;;;;;;;11.37;7.03;;;;;;;;;;758896;184;917147;-61
2023/04/29 01:56:28;;;;;;;12.40;6.23;;;;;;;;;;763768;182;919626;-61
2023/04/29 01:58:54;;;;;;;8.00;6.73;;;;;;;;;;766634;182;867550;-61
2023/04/29 02:01:20;;;;;;;12.60;7.53;;;;;;;;;;773180;181;811403;-60
2023/04/29 02:03:45;;;;;;;6.70;5.97;;;;;;;;;;761553;180;866690;-61
2023/04/29 02:06:11;;;;;;;10.93;8.13;;;;;;;;;;756189;184;929429;-61
2023/04/29 02:08:37;;;;;;;11.60;7.17;;;;;;;;;;763400;182;911779;-60
2023/04/29 02:11:03;;;;;;;10.47;7.20;;;;;;;;;;754074;182;1020858;-61
2023/04/29 02:13:29;;;;;;;11.03;7.00;;;;;;;;;;763847;181;919933;-61
2023/04/29 02:15:55;;;;;;;9.23;6.80;;;;;;;;;;760421;181;919399;-61
2023/04/29 02:18:20;;;;;;;9.27;5.80;;;;;;;;;;772272;182;919778;-61
2023/04/29 02:20:46;;;;;;;14.70;6.53;;;;;;;;;;767394;182;918290;-61
2023/04/29 02:23:12;;;;;;;12.10;7.37;;;;;;;;;;755035;182;919050;-60
2023/04/29 02:25:38;;;;;;;12.77;6.97;;;;;;;;;;765743;181;918608;-60
2023/04/29 02:28:04;;;;;;;10.50;7.17;;;;;;;;;;769997;180;919355;-61
2023/04/29 02:30:30;;;;;;;9.50;6.33;;;;;;;;;;769025;179;918719;-61
2023/04/29 02:32:56;;;;;;;11.90;7.40;;;;;;;;;;769195;182;921542;-61
2023/04/29 02:35:21;;;;;;;12.03;7.57;;;;;;;;;;765471;182;919320;-61
2023/04/29 02:37:47;;;;;;;8.03;6.03;;;;;;;;;;766798;181;919584;-61
2023/04/29 02:40:13;;;;;;;9.35;7.12;;;;;;;;;;767178;182;924516;-60
2023/04/29 02:42:39;;;;;;;10.57;6.57;;;;;;;;;;757506;184;918491;-61
2023/04/29 02:45:05;;;;;;;10.82;7.35;;;;;;;;;;750127;185;919333;-61
2023/04/29 02:47:31;;;;;;;11.87;7.47;;;;;;;;;;761306;182;919385;-61
2023/04/29 02:49:57;;;;;;;8.40;5.70;;;;;;;;;;770593;182;873165;-61
2023/04/29 02:52:23;;;;;;;10.00;7.03;;;;;;;;;;765778;182;918700;-60
2023/04/29 02:54:49;;;;;;;11.13;5.93;;;;;;;;;;763439;184;919429;-60
2023/04/29 02:57:15;;;;;;;8.88;5.65;;;;;;;;;;758961;184;816178;-60
2023/04/29 02:59:40;;;;;;;8.13;6.27;;;;;;;;;;753998;183;918700;-60
2023/04/29 03:02:06;;;;;;;11.03;6.77;;;;;;;;;;760299;182;885526;-60
2023/04/29 03:04:32;;;;;;;12.97;6.40;;;;;;;;;;763641;182;844373;-61
2023/04/29 03:06:58;;;;;;;8.47;7.03;;;;;;;;;;767487;182;827640;-61
2023/04/29 03:09:24;;;;;;;12.00;7.07;;;;;;;;;;768802;180;919608;-60
2023/04/29 03:11:50;;;;;;;9.40;6.97;;;;;;;;;;763081;182;920047;-60
2023/04/29 03:14:16;;;;;;;9.40;7.27;;;;;;;;;;767386;182;894710;-60
2023/04/29 03:16:41;;;;;;;11.45;7.03;;;;;;;;;;762929;181;917591;-60
2023/04/29 03:19:07;;;;;;;9.70;6.50;;;;;;;;;;760473;181;893305;-61
2023/04/29 03:21:33;;;;;;;7.63;6.33;;;;;;;;;;766359;182;920306;-60
2023/04/29 03:23:59;;;;;;;8.63;6.40;;;;;;;;;;752233;184;919010;-61
2023/04/29 03:26:25;;;;;;;11.20;6.70;;;;;;;;;;766631;181;920676;-60
2023/04/29 03:28:50;;;;;;;7.70;6.30;;;;;;;;;;758057;183;916120;-61
2023/04/29 03:31:17;;;;;;;8.23;6.53;;;;;;;;;;754657;183;914423;-61
2023/04/29 03:33:42;;;;;;;9.17;7.47;;;;;;;;;;757516;181;919618;-60
2023/04/29 03:36:08;;;;;;;8.70;7.00;;;;;;;;;;766192;181;919226;-61
2023/04/29 03:38:34;;;;;;;11.70;6.33;;;;;;;;;;769670;182;916274;-61
2023/04/29 03:41:00;;;;;;;8.45;6.43;;;;;;;;;;759441;182;946782;-61
2023/04/29 03:43:26;;;;;;;8.60;7.23;;;;;;;;;;761732;182;860438;-60
2023/04/29 03:45:51;;;;;;;9.70;6.37;;;;;;;;;;765691;182;919259;-60
2023/04/29 03:48:18;;;;;;;15.03;9.07;;;;;;;;;;763377;182;918933;-60
2023/04/29 03:50:43;;;;;;;9.77;8.37;;;;;;;;;;766749;182;918696;-61
2023/04/29 03:53:09;;;;;;;14.07;8.37;;;;;;;;;;773886;181;917887;-60
2023/04/29 03:55:35;;;;;;;9.73;7.23;;;;;;;;;;764142;181;919305;-60
2023/04/29 03:58:01;;;;;;;12.50;8.60;;;;;;;;;;768616;181;830006;-61
2023/04/29 04:00:29;;;;;;;10.93;7.13;;;;;;;;;;766702;182;917137;-61
2023/04/29 04:02:52;;;;;;;10.33;8.57;;;;;;;;;;769790;181;917497;-61
2023/04/29 04:05:19;;;;;;;11.17;8.33;;;;;;;;;;764944;179;1021321;-60
2023/04/29 04:07:44;;;;;;;11.68;9.68;;;;;;;;;;764431;180;916738;-61
2023/04/29 04:10:10;;;;;;;11.93;8.20;;;;;;;;;;766973;182;916833;-61
2023/04/29 04:12:36;;;;;;;17.17;10.03;;;;;;;;;;767014;181;918231;-60
2023/04/29 04:15:03;;;;;;;18.35;10.35;;;;;;;;;;761220;183;1021278;-61
2023/04/29 04:17:28;;;;;;;13.07;10.67;;;;;;;;;;762906;182;919151;-60
2023/04/29 04:19:53;;;;;;;14.80;9.83;;;;;;;;;;758998;182;922086;-60
2023/04/29 04:22:19;;;;;;;14.83;10.30;;;;;;;;;;763488;182;921511;-60
2023/04/29 04:24:45;;;;;;;13.27;9.10;;;;;;;;;;768141;183;828718;-60
2023/04/29 04:27:12;;;;;;;12.83;8.20;;;;;;;;;;765454;181;842556;-60
2023/04/29 04:29:37;;;;;;;14.13;9.27;;;;;;;;;;760765;180;821121;-60
2023/04/29 04:32:03;;;;;;;16.40;8.50;;;;;;;;;;751797;183;918471;-60
2023/04/29 04:34:29;;;;;;;19.30;9.73;;;;;;;;;;768293;182;818147;-60
2023/04/29 04:36:54;;;;;;;11.77;8.97;;;;;;;;;;763608;181;917694;-60
2023/04/29 04:39:20;;;;;;;13.07;10.50;;;;;;;;;;767939;181;910960;-62
2023/04/29 04:41:46;;;;;;;16.53;9.47;;;;;;;;;;773579;182;919437;-60
2023/04/29 04:44:13;;;;;;;15.60;9.67;;;;;;;;;;768557;182;919836;-60
2023/04/29 04:46:38;;;;;;;11.68;8.45;;;;;;;;;;766614;182;919258;-60
2023/04/29 04:49:04;;;;;;;13.40;10.30;;;;;;;;;;755718;182;898251;-61
2023/04/29 04:51:30;;;;;;;12.63;8.40;;;;;;;;;;762582;182;883533;-61
2023/04/29 04:53:55;;;;;;;11.20;8.85;;;;;;;;;;765146;182;922452;-60
2023/04/29 04:56:21;;;;;;;13.13;9.93;;;;;;;;;;764366;182;938098;-61
2023/04/29 04:58:47;;;;;;;17.53;8.03;;;;;;;;;;764351;182;919784;-61
2023/04/29 05:01:13;;;;;;;16.40;9.17;;;;;;;;;;763396;182;1021772;-60
2023/04/29 05:03:39;;;;;;;12.50;9.10;;;;;;;;;;763143;182;917704;-61
2023/04/29 05:06:05;;;;;;;12.03;7.73;;;;;;;;;;762544;182;924093;-61
2023/04/29 05:08:31;;;;;;;12.30;8.80;;;;;;;;;;759488;182;884106;-61
2023/04/29 05:10:57;;;;;;;11.57;8.27;;;;;;;;;;766870;181;818183;-61
2023/04/29 05:13:24;;;;;;;16.00;9.23;;;;;;;;;;768465;181;924771;-61
2023/04/29 05:15:48;;;;;;;13.60;8.57;;;;;;;;;;763208;182;918942;-61
2023/04/29 05:18:14;;;;;;;15.40;9.67;;;;;;;;;;760032;180;919734;-60
2023/04/29 05:20:40;;;;;;;12.90;9.30;;;;;;;;;;757872;183;919393;-60
2023/04/29 05:23:06;;;;;;;13.47;9.37;;;;;;;;;;767975;183;911901;-60
2023/04/29 05:25:32;;;;;;;16.80;9.33;;;;;;;;;;764176;182;880980;-60
2023/04/29 05:27:57;;;;;;;14.03;9.40;;;;;;;;;;765657;182;918282;-61
2023/04/29 05:30:23;;;;;;;10.30;8.10;;;;;;;;;;764624;182;940520;-60
2023/04/29 05:32:49;;;;;;;11.97;7.33;;;;;;;;;;762512;182;916501;-60
2023/04/29 05:35:15;;;;;;;9.30;7.17;;;;;;;;;;755844;185;919310;-61
2023/04/29 05:37:41;;;;;;;12.07;7.93;;;;;;;;;;757808;184;896319;-60
2023/04/29 05:40:07;;;;;;;16.90;7.47;;;;;;;;;;751984;184;921412;-61
2023/04/29 05:42:33;;;;;;;15.40;9.27;;;;;;;;;;751503;183;912127;-60
2023/04/29 05:44:59;;;;;;;11.00;8.23;;;;;;;;;;769040;181;911858;-61
2023/04/29 05:47:25;;;;;;;15.20;8.40;;;;;;;;;;759934;180;922134;-61
2023/04/29 05:49:50;;;;;;;12.77;8.80;;;;;;;;;;762087;182;914291;-60
2023/04/29 05:52:16;;;;;;;11.33;7.83;;;;;;;;;;767134;181;880104;-60
2023/04/29 05:54:42;;;;;;;14.70;8.87;;;;;;;;;;773624;181;811449;-60
2023/04/29 05:57:08;;;;;;;12.30;8.20;;;;;;;;;;768839;182;918325;-60
2023/04/29 05:59:34;;;;;;;13.13;8.95;;;;;;;;;;768889;182;918964;-60
2023/04/29 06:02:00;;;;;;;12.90;7.67;;;;;;;;;;772724;182;919078;-61
2023/04/29 06:04:26;;;;;;;12.47;9.60;;;;;;;;;;767021;182;920476;-60
2023/04/29 06:06:51;;;;;;;13.67;9.20;;;;;;;;;;766448;182;919506;-60
2023/04/29 06:09:17;;;;;;;12.40;8.83;;;;;;;;;;763027;182;815905;-61
2023/04/29 06:11:43;;;;;;;15.27;8.73;;;;;;;;;;749208;182;920571;-61
2023/04/29 06:14:09;;;;;;;12.43;7.77;;;;;;;;;;762548;181;918984;-60
2023/04/29 06:16:35;;;;;;;12.27;7.60;;;;;;;;;;763050;182;919317;-60
2023/04/29 06:19:01;;;;;;;14.90;8.30;;;;;;;;;;761828;181;920886;-61
2023/04/29 06:21:27;;;;;;;12.57;8.63;;;;;;;;;;749877;184;917636;-61
2023/04/29 06:23:53;;;;;;;11.37;8.80;;;;;;;;;;759495;182;919950;-61
2023/04/29 06:26:19;;;;;;;10.23;7.90;;;;;;;;;;773663;180;908157;-61
2023/04/29 06:28:45;;;;;;;12.63;8.30;;;;;;;;;;767975;181;817088;-61
2023/04/29 06:31:11;;;;;;;12.87;8.20;;;;;;;;;;761256;182;916589;-60
2023/04/29 06:33:37;;;;;;;13.33;8.20;;;;;;;;;;767247;182;918801;-61
2023/04/29 06:36:03;;;;;;;9.13;7.30;;;;;;;;;;762979;182;920445;-61
2023/04/29 06:38:28;;;;;;;10.77;7.80;;;;;;;;;;763574;182;1020725;-61
2023/04/29 06:40:56;;;;;;;12.53;8.33;;;;;;;;;;748571;183;919217;-61
2023/04/29 06:43:20;;;;;;;11.40;7.60;;;;;;;;;;756588;183;827323;-61
2023/04/29 06:45:46;;;;;;;12.33;7.80;;;;;;;;;;760513;181;710696;-61
2023/04/29 06:48:12;;;;;;;14.27;8.77;;;;;;;;;;760903;181;845430;-60
2023/04/29 06:50:38;;;;;;;13.07;8.40;;;;;;;;;;769448;182;917219;-60
2023/04/29 06:53:03;;;;;;;10.67;7.70;;;;;;;;;;764436;180;911731;-61
2023/04/29 06:55:30;;;;;;;11.93;7.87;;;;;;;;;;765033;181;922101;-61
2023/04/29 06:57:56;;;;;;;14.87;8.10;;;;;;;;;;768099;180;921901;-61
2023/04/29 07:00:21;;;;;;;12.13;7.23;;;;;;;;;;761242;181;897109;-61
2023/04/29 07:02:47;;;;;;;12.27;7.50;;;;;;;;;;760347;182;918684;-61
2023/04/29 07:05:13;;;;;;;14.47;7.37;;;;;;;;;;767315;182;918737;-61
2023/04/29 07:07:39;;;;;;;12.13;8.50;;;;;;;;;;759301;179;880838;-61
2023/04/29 07:10:05;;;;;;;14.90;8.10;;;;;;;;;;754563;184;916873;-60
2023/04/29 07:12:31;;;;;;;11.87;7.80;;;;;;;;;;762085;182;921566;-61
2023/04/29 07:14:57;;;;;;;13.57;8.53;;;;;;;;;;767519;182;793630;-60
2023/04/29 07:17:22;;;;;;;18.60;8.20;;;;;;;;;;761028;182;915943;-60
2023/04/29 07:19:48;;;;;;;14.57;8.30;;;;;;;;;;760311;182;920579;-61
2023/04/29 07:22:14;;;;;;;14.77;8.40;;;;;;;;;;767357;182;917473;-61
2023/04/29 07:24:40;;;;;;;12.90;8.37;;;;;;;;;;762482;182;920679;-61
2023/04/29 07:27:06;;;;;;;11.93;6.93;;;;;;;;;;750140;183;716143;-61
2023/04/29 07:29:31;;;;;;;10.77;7.95;;;;;;;;;;765454;182;918506;-61
2023/04/29 07:31:57;;;;;;;13.40;7.17;;;;;;;;;;763810;181;919643;-61
2023/04/29 07:34:23;;;;;;;14.90;7.90;;;;;;;;;;760685;182;840289;-61
2023/04/29 07:36:49;;;;;;;15.30;8.40;;;;;;;;;;761312;180;919001;-61
2023/04/29 07:39:15;;;;;;;10.30;7.10;;;;;;;;;;753613;184;918979;-61
2023/04/29 07:41:41;;;;;;;12.63;7.73;;;;;;;;;;754440;181;920566;-61
2023/04/29 07:44:07;;;;;;;12.43;7.83;;;;;;;;;;763687;182;916717;-61
2023/04/29 07:46:32;;;;;;;12.50;7.30;;;;;;;;;;767127;181;918301;-61
2023/04/29 07:48:58;;;;;;;11.90;6.97;;;;;;;;;;762643;182;850601;-62
2023/04/29 07:51:26;;;;;;;12.63;8.43;;;;;;;;;;763604;181;940685;-61
2023/04/29 07:53:50;;;;;;;13.07;6.20;;;;;;;;;;766857;181;919993;-61
2023/04/29 07:56:16;;;;;;;12.07;7.50;;;;;;;;;;760083;182;919886;-61
2023/04/29 07:58:42;;;;;;;20.57;7.60;;;;;;;;;;762224;182;919929;-61
2023/04/29 08:01:09;;;;;;;15.57;7.80;;;;;;;;;;759402;182;918457;-61
2023/04/29 08:03:34;;;;;;;15.93;8.67;;;;;;;;;;768268;180;920306;-59
2023/04/29 08:06:00;;;;;;;11.47;6.90;;;;;;;;;;764563;181;919917;-62
2023/04/29 08:08:26;;;;;;;16.07;7.80;;;;;;;;;;761826;182;917558;-61
2023/04/29 08:10:52;;;;;;;12.13;7.10;;;;;;;;;;770364;182;841156;-61
2023/04/29 08:13:17;;;;;;;10.53;6.97;;;;;;;;;;751557;185;918157;-61
2023/04/29 08:15:43;;;;;;;14.27;7.43;;;;;;;;;;762894;182;818006;-61
2023/04/29 08:18:09;;;;;;;11.57;6.57;;;;;;;;;;766257;182;917274;-62
2023/04/29 08:20:35;;;;;;;14.82;8.63;;;;;;;;;;765861;182;817824;-61
2023/04/29 08:23:01;;;;;;;10.87;7.50;;;;;;;;;;763212;182;851143;-61
2023/04/29 08:25:29;;;;;;;16.37;7.28;;;;;;;;;;763866;182;852687;-61
2023/04/29 08:27:53;;;;;;;12.07;7.30;;;;;;;;;;767754;182;913208;-61
2023/04/29 08:30:19;;;;;;;13.90;7.47;;;;;;;;;;762409;181;901164;-62
2023/04/29 08:32:45;;;;;;;11.37;7.50;;;;;;;;;;761168;182;918707;-61
2023/04/29 08:35:11;;;;;;;19.40;7.77;;;;;;;;;;766966;182;919640;-61
2023/04/29 08:37:37;;;;;;;12.87;7.70;;;;;;;;;;762796;182;919932;-62
2023/04/29 08:40:03;;;;;;;15.53;8.23;;;;;;;;;;760183;182;919402;-61
2023/04/29 08:42:29;;;;;;;15.40;7.63;;;;;;;;;;760555;183;859667;-61
2023/04/29 08:44:55;;;;;;;10.95;8.98;;;;;;;;;;763784;182;892083;-64
2023/04/29 08:47:22;;;;;;;16.20;8.90;;;;;;;;;;761395;181;927053;-60
2023/04/29 08:49:48;;;;;;;14.35;8.30;;;;;;;;;;767642;182;912506;-61
2023/04/29 08:52:14;;;;;;;12.00;7.80;;;;;;;;;;756988;183;918819;-61
2023/04/29 08:54:40;;;;;;;15.03;7.07;;;;;;;;;;729490;189;919427;-61
2023/04/29 08:57:06;;;;;;;13.27;6.77;;;;;;;;;;737908;187;913203;-61
2023/04/29 08:59:31;;;;;;;12.30;7.97;;;;;;;;;;749199;186;918767;-61
2023/04/29 09:01:57;;;;;;;11.33;7.40;;;;;;;;;;745478;186;918646;-63
2023/04/29 09:04:38;;;;;;;13.27;7.40;;;;;;;;;;745584;186;919337;-61
2023/04/29 09:07:04;;;;;;;10.30;6.70;;;;;;;;;;738470;186;921372;-61
2023/04/29 09:09:30;;;;;;;14.30;7.80;;;;;;;;;;749038;186;916677;-61
2023/04/29 09:11:56;;;;;;;11.87;6.77;;;;;;;;;;745329;184;918883;-61
2023/04/29 09:14:22;;;;;;;12.70;7.60;;;;;;;;;;747118;186;919397;-61
2023/04/29 09:16:47;;;;;;;12.43;7.43;;;;;;;;;;771883;181;817647;-61
2023/04/29 09:19:28;;;;;;;15.43;7.97;;;;;;;;;;765169;181;931915;-62
2023/04/29 09:21:55;;;;;;;17.60;9.37;;;;;;;;;;766480;179;814419;-61
2023/04/29 09:24:20;;;;;;;25.37;10.60;;;;;;;;;;767214;181;868293;-61
2023/04/29 09:26:46;;;;;;;11.83;9.23;;;;;;;;;;748524;186;925922;-61
2023/04/29 09:29:14;;;;;;;15.70;9.90;;;;;;;;;;763418;181;919094;-62
2023/04/29 09:31:39;;;;;;;13.10;9.87;;;;;;;;;;763271;181;919651;-60
2023/04/29 09:34:05;;;;;;;12.00;9.40;;;;;;;;;;762222;182;823549;-60
2023/04/29 09:36:36;;;;;;;15.40;11.00;;;;;;;;;;765377;182;922782;-61
2023/04/29 09:39:04;;;;;;;15.53;9.40;;;;;;;;;;763953;181;913567;-61
2023/04/29 09:41:28;;;;;;;12.70;9.50;;;;;;;;;;763621;182;917490;-61
2023/04/29 09:44:09;;;;;;;14.80;9.97;;;;;;;;;;761731;182;919302;-61
2023/04/29 09:46:35;;;;;;;16.05;10.90;;;;;;;;;;753650;186;917165;-61
2023/04/29 09:49:03;;;;;;;11.70;9.60;;;;;;;;;;762389;182;914095;-61
2023/04/29 09:51:31;;;;;;;14.93;9.43;;;;;;;;;;760040;182;914927;-62
2023/04/29 09:53:54;;;;;;;13.75;10.02;;;;;;;;;;761269;182;918427;-62
2023/04/29 09:56:20;;;;;;;16.70;8.90;;;;;;;;;;767151;182;817401;-61
2023/04/29 09:58:46;;;;;;;16.33;11.33;;;;;;;;;;759513;182;924561;-61
2023/04/29 10:01:13;;;;;;;12.75;9.82;;;;;;;;;;762386;182;921135;-61
2023/04/29 10:03:37;;;;;;;17.40;9.47;;;;;;;;;;765707;182;817325;-61
2023/04/29 10:06:04;;;;;;;18.40;10.70;;;;;;;;;;761609;182;920593;-61
2023/04/29 10:08:30;;;;;;;15.20;10.60;;;;;;;;;;760305;182;916988;-61
2023/04/29 10:10:58;;;;;;;18.58;10.00;;;;;;;;;;756518;182;916874;-60
2023/04/29 10:13:25;;;;;;;17.20;10.80;;;;;;;;;;755584;184;921783;-59
2023/04/29 10:15:50;;;;;;;13.07;9.97;;;;;;;;;;753659;181;1019364;-60
2023/04/29 10:18:20;;;;;;;19.07;11.20;;;;;;;;;;761925;181;1021657;-60
2023/04/29 10:20:46;;;;;;;16.37;11.07;;;;;;;;;;768250;182;862731;-59
2023/04/29 10:23:11;;;;;;;21.17;13.30;;;;;;;;;;759690;182;1020876;-59
2023/04/29 10:25:37;;;;;;;29.40;12.80;;;;;;;;;;752046;181;935629;-59
2023/04/29 10:28:04;;;;;;;17.40;11.80;;;;;;;;;;765453;182;918715;-59
2023/04/29 10:30:30;;;;;;;17.43;11.27;;;;;;;;;;769636;181;932691;-59
2023/04/29 10:32:56;;;;;;;17.07;13.27;;;;;;;;;;766207;181;919617;-58
2023/04/29 10:35:24;;;;;;;14.23;11.37;;;;;;;;;;756143;179;919860;-59
2023/04/29 10:37:47;;;;;;;20.23;11.97;;;;;;;;;;765386;180;914809;-59
2023/04/29 10:40:15;;;;;;;20.87;14.70;;;;;;;;;;765045;182;818852;-59
2023/04/29 10:42:44;;;;;;;19.05;12.13;;;;;;;;;;762544;181;1022025;-58
2023/04/29 10:45:16;;;;;;;15.83;12.67;;;;;;;;;;766738;182;814400;-58
2023/04/29 10:47:42;;;;;;;18.73;12.63;;;;;;;;;;765457;181;920952;-58
2023/04/29 10:50:07;;;;;;;18.17;13.10;;;;;;;;;;761139;181;915733;-59
2023/04/29 10:52:33;;;;;;;13.52;10.32;;;;;;;;;;763155;182;920453;-58
2023/04/29 10:55:01;;;;;;;19.37;12.27;;;;;;;;;;767163;181;919598;-58
2023/04/29 10:57:27;;;;;;;14.60;11.13;;;;;;;;;;763250;182;913024;-58
2023/04/29 10:59:52;;;;;;;15.73;11.87;;;;;;;;;;761319;181;914714;-58
2023/04/29 11:02:19;;;;;;;15.80;13.15;;;;;;;;;;762283;182;891431;-58
2023/04/29 11:04:51;;;;;;;12.83;11.30;;;;;;;;;;757326;184;816599;-58
2023/04/29 11:07:32;;;;;;;17.05;12.75;;;;;;;;;;755142;182;912595;-58
2023/04/29 11:09:58;;;;;;;16.97;12.10;;;;;;;;;;761885;182;916261;-58
2023/04/29 11:12:24;;;;;;;17.15;11.48;;;;;;;;;;765295;182;919246;-58
2023/04/29 11:14:50;;;;;;;19.17;13.27;;;;;;;;;;769667;182;820194;-57
2023/04/29 11:17:16;;;;;;;16.40;9.98;;;;;;;;;;751502;185;920224;-57
2023/04/29 11:19:43;;;;;;;16.92;12.73;;;;;;;;;;763616;182;918663;-59
2023/04/29 11:22:20;;;;;;;18.60;12.47;;;;;;;;;;767439;182;778185;-58
2023/04/29 11:24:48;;;;;;;15.63;12.03;;;;;;;;;;766768;182;921897;-58
2023/04/29 11:27:14;;;;;;;16.83;13.20;;;;;;;;;;762321;182;719036;-58
2023/04/29 11:29:39;;;;;;;18.03;11.70;;;;;;;;;;762120;182;918445;-59
2023/04/29 11:32:05;;;;;;;15.60;12.17;;;;;;;;;;765753;182;678793;-58
2023/04/29 11:34:31;;;;;;;19.00;14.50;;;;;;;;;;763293;180;919378;-59
2023/04/29 11:36:57;;;;;;;16.47;12.60;;;;;;;;;;763509;182;917551;-59
2023/04/29 11:39:23;;;;;;;20.53;13.20;;;;;;;;;;761318;181;917407;-58
2023/04/29 11:41:49;;;;;;;18.17;14.03;;;;;;;;;;770156;182;917253;-59
2023/04/29 11:44:15;;;;;;;24.50;13.67;;;;;;;;;;765306;180;902900;-59
2023/04/29 11:46:40;;;;;;;18.93;12.50;;;;;;;;;;750281;186;925968;-59
2023/04/29 11:49:06;;;;;;;13.93;10.80;;;;;;;;;;764056;182;917101;-59
2023/04/29 11:51:32;;;;;;;17.80;12.63;;;;;;;;;;758746;182;919507;-59
2023/04/29 11:53:58;;;;;;;16.67;9.57;;;;;;;;;;753672;183;919608;-60
2023/04/29 11:56:25;;;;;;;10.83;7.10;;;;;;;;;;759470;182;919323;-59
2023/04/29 11:58:54;;;;;;;9.20;7.87;;;;;;;;;;764257;182;919634;-60
2023/04/29 12:01:20;;;;;;;8.60;5.90;;;;;;;;;;763579;181;920037;-59
2023/04/29 12:03:45;;;;;;;11.40;7.25;;;;;;;;;;760385;180;921170;-59
2023/04/29 12:06:11;;;;;;;8.23;6.23;;;;;;;;;;766368;182;919118;-63
2023/04/29 12:08:37;;;;;;;9.40;5.67;;;;;;;;;;762439;184;920798;-59
2023/04/29 12:11:03;;;;;;;7.20;5.43;;;;;;;;;;762117;184;818413;-59
2023/04/29 12:13:28;;;;;;;8.27;5.80;;;;;;;;;;766539;182;817439;-59
2023/04/29 12:15:54;;;;;;;12.10;5.90;;;;;;;;;;749835;185;916365;-59
2023/04/29 12:18:22;;;;;;;8.43;5.63;;;;;;;;;;749882;182;916750;-59
2023/04/29 12:20:47;;;;;;;6.53;4.73;;;;;;;;;;760959;182;917861;-59
2023/04/29 12:23:12;;;;;;;8.27;5.97;;;;;;;;;;766806;183;857804;-59
2023/04/29 12:25:38;;;;;;;7.70;5.27;;;;;;;;;;762892;182;914969;-60
2023/04/29 12:28:04;;;;;;;9.63;5.70;;;;;;;;;;767437;182;909534;-59
2023/04/29 12:30:30;;;;;;;5.97;4.60;;;;;;;;;;764545;182;826795;-59
2023/04/29 12:32:55;;;;;;;4.50;3.20;;;;;;;;;;750771;182;986096;-60
2023/04/29 12:35:21;;;;;;;6.20;4.13;;;;;;;;;;766843;181;920189;-61
2023/04/29 12:37:47;;;;;;;6.33;3.47;;;;;;;;;;768088;183;920087;-59
2023/04/29 12:40:14;;;;;;;6.00;3.70;;;;;;;;;;762536;182;918578;-60
2023/04/29 12:42:39;;;;;;;4.60;3.30;;;;;;;;;;755489;182;918504;-60
2023/04/29 12:45:06;;;;;;;5.07;3.58;;;;;;;;;;766283;182;917900;-59
2023/04/29 12:47:33;;;;;;;4.50;3.40;;;;;;;;;;759033;182;920534;-60
2023/04/29 12:49:58;;;;;;;4.97;3.30;;;;;;;;;;765117;181;912464;-59
2023/04/29 12:52:24;;;;;;;4.97;3.75;;;;;;;;;;769820;182;921356;-58
2023/04/29 12:54:50;;;;;;;10.73;4.50;;;;;;;;;;772126;182;921947;-59
2023/04/29 12:57:16;;;;;;;5.50;3.37;;;;;;;;;;764057;182;821704;-58
2023/04/29 12:59:41;;;;;;;5.53;4.17;;;;;;;;;;755560;185;628964;-58
2023/04/29 13:02:07;;;;;;;5.67;3.20;;;;;;;;;;765977;182;812690;-58
2023/04/29 13:04:33;;;;;;;6.43;3.50;;;;;;;;;;758319;182;939096;-58
2023/04/29 13:06:59;;;;;;;5.18;3.75;;;;;;;;;;760480;181;918883;-58
2023/04/29 13:09:25;;;;;;;5.00;3.07;;;;;;;;;;771553;182;629702;-58
2023/04/29 13:11:51;;;;;;;6.47;3.20;;;;;;;;;;768041;179;630654;-60
2023/04/29 13:14:17;;;;;;;6.00;3.30;;;;;;;;;;764390;182;755237;-59
2023/04/29 13:16:43;;;;;;;5.10;3.30;;;;;;;;;;757829;183;906278;-58
2023/04/29 13:19:08;;;;;;;4.53;2.80;;;;;;;;;;768822;182;622939;-58
2023/04/29 13:21:34;;;;;;;5.13;3.20;;;;;;;;;;750690;183;920591;-58
2023/04/29 13:24:00;;;;;;;7.93;3.57;;;;;;;;;;751452;186;917623;-59
2023/04/29 13:26:26;;;;;;;3.80;2.87;;;;;;;;;;767190;182;919842;-58
2023/04/29 13:28:52;;;;;;;3.40;2.60;;;;;;;;;;763619;182;826634;-58
2023/04/29 13:31:17;;;;;;;5.05;2.80;;;;;;;;;;761440;182;919226;-59
2023/04/29 13:33:44;;;;;;;4.43;2.73;;;;;;;;;;765358;182;918271;-58
2023/04/29 13:36:09;;;;;;;4.33;3.13;;;;;;;;;;760751;181;919648;-58
2023/04/29 13:38:35;;;;;;;4.73;2.70;;;;;;;;;;762815;182;819118;-58
2023/04/29 13:41:01;;;;;;;5.50;3.90;;;;;;;;;;752020;184;922036;-58
2023/04/29 13:43:27;;;;;;;4.93;3.87;;;;;;;;;;764760;182;919606;-58
2023/04/29 13:45:53;;;;;;;4.93;3.80;;;;;;;;;;768464;181;919189;-59
2023/04/29 13:48:18;;;;;;;6.50;3.97;;;;;;;;;;766742;181;916991;-60
2023/04/29 13:50:44;;;;;;;7.53;4.83;;;;;;;;;;763951;182;918264;-60
2023/04/29 13:53:10;;;;;;;5.40;4.17;;;;;;;;;;766265;182;909640;-58
2023/04/29 13:55:36;;;;;;;6.40;4.77;;;;;;;;;;761399;182;919915;-59
2023/04/29 13:58:02;;;;;;;8.40;5.83;;;;;;;;;;767285;182;896394;-58
2023/04/29 14:00:28;;;;;;;6.27;5.20;;;;;;;;;;763972;182;912816;-60
2023/04/29 14:02:53;;;;;;;5.83;4.43;;;;;;;;;;763940;182;938210;-58
2023/04/29 14:05:20;;;;;;;6.35;4.43;;;;;;;;;;763741;182;918839;-59
2023/04/29 14:07:46;;;;;;;5.83;4.87;;;;;;;;;;761897;180;919394;-60
2023/04/29 14:10:12;;;;;;;6.97;4.60;;;;;;;;;;764585;182;918319;-59
2023/04/29 14:12:38;;;;;;;6.17;5.23;;;;;;;;;;767733;181;916984;-59